Time;durP1;ratioP1;P1;durP2;ratioP2;P2;SDS_P1;SDS_P2;PMS_P1;PMS_P2;Temp;Humidity;BMP_temperature;BMP_pressure;BME280_temperature;BME280_humidity;BME280_pressure;Samples;Min_cycle;Max_cycle;Signal;HPM_P1;HPM_P2
2023/05/14 00:02:21;;;;;;;5.77;5.30;;;;;;;17.05;59.33;98749.50;6958166;28;20236;-85
2023/05/14 00:05:43;;;;;;;8.37;6.40;;;;;;;16.74;59.47;98704.56;6952694;28;20253;-85
2023/05/14 00:09:06;;;;;;;7.23;6.47;;;;;;;16.95;59.93;98747.44;6959549;28;20300;-84
2023/05/14 00:12:28;;;;;;;6.63;6.07;;;;;;;16.91;59.19;98713.59;6976040;28;20233;-84
2023/05/14 00:15:50;;;;;;;7.07;6.43;;;;;;;16.07;59.83;98594.00;6976702;28;20296;-85
2023/05/14 00:19:11;;;;;;;7.33;6.63;;;;;;;16.11;61.94;98717.53;6978214;28;20352;-85
2023/05/14 00:22:33;;;;;;;8.23;7.43;;;;;;;16.21;62.29;98709.56;6977190;28;20229;-84
2023/05/14 00:25:56;;;;;;;7.97;7.10;;;;;;;16.37;61.28;98653.53;6977275;28;20251;-84
2023/05/14 00:29:17;;;;;;;6.83;6.10;;;;;;;16.74;61.08;98687.44;6976239;28;20224;-84
2023/05/14 00:32:39;;;;;;;7.83;7.03;;;;;;;16.55;61.14;98699.59;6975700;28;20278;-84
2023/05/14 00:36:01;;;;;;;7.63;7.00;;;;;;;16.55;60.96;98697.72;6975732;28;20228;-84
2023/05/14 00:39:22;;;;;;;6.87;6.23;;;;;;;16.79;60.16;98693.78;6976084;28;20206;-85
2023/05/14 00:42:59;;;;;;;7.27;6.60;;;;;;;16.03;61.27;98682.56;6974048;28;20599;-85
2023/05/14 00:46:21;;;;;;;6.60;6.00;;;;;;;16.67;60.62;98724.88;6975659;28;20307;-84
2023/05/14 00:49:43;;;;;;;8.40;6.70;;;;;;;16.65;60.45;98707.97;6975489;28;20343;-85
2023/05/14 00:53:08;;;;;;;6.67;5.97;;;;;;;16.39;61.35;98716.75;6974996;28;20694;-84
2023/05/14 00:56:30;;;;;;;7.03;6.43;;;;;;;16.36;61.59;98714.47;6975379;28;20228;-84
2023/05/14 00:59:53;;;;;;;6.90;6.20;;;;;;;16.31;61.82;98695.34;6975282;28;20292;-85
2023/05/14 01:03:14;;;;;;;9.83;8.93;;;;;;;16.75;60.54;98708.94;6975090;28;20253;-84
2023/05/14 01:06:43;;;;;;;6.27;5.77;;;;;;;16.82;59.96;98692.47;6983197;28;20234;-85
2023/05/14 01:10:12;;;;;;;7.03;6.33;;;;;;;16.65;60.30;98697.91;6981827;28;20200;-85
2023/05/14 01:13:40;;;;;;;7.50;6.10;;;;;;;16.80;59.82;98700.88;6974521;28;20304;-85
2023/05/14 01:17:05;;;;;;;6.67;6.07;;;;;;;16.61;60.28;98693.19;6974091;28;20264;-85
2023/05/14 01:20:26;;;;;;;7.10;6.50;;;;;;;15.75;60.42;98603.72;6974722;28;20208;-84
2023/05/14 01:23:49;;;;;;;8.10;7.30;;;;;;;15.96;62.39;98689.22;6974076;28;20319;-84
2023/05/14 01:27:20;;;;;;;7.17;6.57;;;;;;;16.28;61.34;98674.06;6974784;28;20675;-84
2023/05/14 01:30:48;;;;;;;7.60;6.93;;;;;;;16.43;61.08;98671.63;6949897;28;20228;-84
2023/05/14 01:34:11;;;;;;;7.20;6.57;;;;;;;16.47;60.39;98695.41;6946828;28;20666;-84
2023/05/14 01:37:33;;;;;;;7.33;6.63;;;;;;;16.31;60.30;98676.28;6947345;28;20323;-84
2023/05/14 01:40:56;;;;;;;7.53;6.27;;;;;;;16.33;59.87;98682.31;6947519;28;20214;-84
2023/05/14 01:44:19;;;;;;;8.30;6.10;;;;;;;16.04;60.92;98697.00;6945057;28;20373;-84
2023/05/14 01:47:41;;;;;;;7.27;6.67;;;;;;;16.03;61.57;98690.72;6946696;28;20326;-85
2023/05/14 01:51:02;;;;;;;8.63;7.60;;;;;;;15.90;61.87;98695.63;6947233;28;20203;-84
2023/05/14 01:54:24;;;;;;;8.73;7.27;;;;;;;16.21;61.07;98695.16;6945559;28;20341;-85
2023/05/14 01:57:47;;;;;;;7.47;6.73;;;;;;;16.26;60.72;98682.47;6946220;28;20322;-83
2023/05/14 02:01:08;;;;;;;7.70;7.10;;;;;;;16.28;60.83;98698.56;6947191;28;20353;-84
2023/05/14 02:04:30;;;;;;;7.47;6.87;;;;;;;15.98;61.32;98685.19;6945684;28;20389;-85
2023/05/14 02:07:51;;;;;;;8.10;7.30;;;;;;;15.02;63.78;98691.47;6946293;28;20366;-85
2023/05/14 02:11:13;;;;;;;9.43;7.73;;;;;;;15.66;62.85;98696.75;6946504;28;20337;-84
2023/05/14 02:14:35;;;;;;;8.40;7.60;;;;;;;15.53;63.30;98672.56;6946043;28;20245;-84
2023/05/14 02:17:57;;;;;;;8.67;7.87;;;;;;;15.48;62.01;98593.66;6946853;28;20237;-85
2023/05/14 02:21:18;;;;;;;7.33;6.67;;;;;;;15.75;61.38;98622.72;6946517;28;20268;-84
2023/05/14 02:24:40;;;;;;;7.33;6.40;;;;;;;15.33;61.65;98621.34;6945553;28;20259;-84
2023/05/14 02:28:01;;;;;;;10.47;7.07;;;;;;;15.63;61.78;98692.63;6948051;28;20368;-84
2023/05/14 02:31:24;;;;;;;9.70;7.27;;;;;;;15.83;62.01;98692.22;6951667;28;20307;-84
2023/05/14 02:34:46;;;;;;;7.87;6.90;;;;;;;16.07;61.07;98681.03;6951535;28;20662;-84
2023/05/14 02:38:07;;;;;;;9.03;7.03;;;;;;;15.82;61.04;98658.75;6951503;28;20305;-84
2023/05/14 02:41:29;;;;;;;7.27;6.57;;;;;;;15.92;61.43;98694.31;6951669;28;20244;-85
2023/05/14 02:45:00;;;;;;;7.23;6.60;;;;;;;15.83;61.87;98689.50;6949773;28;20375;-85
2023/05/14 02:48:23;;;;;;;7.10;6.40;;;;;;;15.76;62.13;98681.47;6951837;28;20331;-85
2023/05/14 02:51:45;;;;;;;7.40;6.67;;;;;;;15.69;61.66;98688.13;6950981;28;20301;-87
2023/05/14 02:55:07;;;;;;;8.03;7.23;;;;;;;15.89;61.64;98691.25;6951145;28;20292;-84
2023/05/14 02:58:28;;;;;;;7.73;6.93;;;;;;;15.75;61.22;98692.59;6951193;28;20288;-84
2023/05/14 03:01:50;;;;;;;10.10;7.30;;;;;;;15.89;61.57;98683.09;6950519;28;20301;-84
2023/05/14 03:05:13;;;;;;;7.70;6.43;;;;;;;16.16;61.30;98698.59;6950750;28;20637;-84
2023/05/14 03:08:34;;;;;;;7.03;6.30;;;;;;;15.75;61.73;98676.28;6957176;28;20782;-84
2023/05/14 03:11:56;;;;;;;7.50;6.70;;;;;;;15.59;61.72;98668.88;6977704;28;20238;-84
2023/05/14 03:15:18;;;;;;;7.50;6.80;;;;;;;15.93;61.95;98695.97;6979683;28;20324;-85
2023/05/14 03:18:39;;;;;;;7.07;6.13;;;;;;;16.27;60.94;98705.06;7002059;28;20564;-86
2023/05/14 03:22:02;;;;;;;7.17;6.33;;;;;;;16.06;60.84;98690.25;6978218;28;20206;-84
2023/05/14 03:25:24;;;;;;;6.70;6.10;;;;;;;15.97;61.71;98702.56;6977646;28;20240;-85
2023/05/14 03:28:45;;;;;;;7.27;6.57;;;;;;;15.61;61.74;98654.00;6977107;28;20211;-83
2023/05/14 03:32:07;;;;;;;7.07;6.40;;;;;;;15.61;61.38;98609.69;6977289;28;20259;-83
2023/05/14 03:35:28;;;;;;;6.57;6.07;;;;;;;16.07;60.96;98688.34;6978247;28;20357;-84
2023/05/14 03:38:51;;;;;;;7.33;6.50;;;;;;;15.98;61.83;98695.25;6977676;28;20243;-83
2023/05/14 03:42:13;;;;;;;8.90;6.90;;;;;;;16.14;61.71;98669.97;6978814;28;20289;-83
2023/05/14 03:45:36;;;;;;;6.90;6.20;;;;;;;16.40;60.81;98692.00;6977463;28;20232;-83
2023/05/14 03:48:58;;;;;;;7.10;6.43;;;;;;;16.27;60.70;98677.88;6978841;28;20340;-84
2023/05/14 03:52:19;;;;;;;7.97;6.83;;;;;;;15.76;61.01;98684.19;6978314;28;20299;-83
2023/05/14 03:55:42;;;;;;;7.27;6.67;;;;;;;15.69;62.26;98680.78;6979436;28;20297;-83
2023/05/14 03:59:04;;;;;;;8.37;7.67;;;;;;;16.16;61.62;98690.44;6979666;28;20208;-83
2023/05/14 04:02:25;;;;;;;7.67;7.00;;;;;;;16.19;61.49;98692.69;6979037;28;20292;-83
2023/05/14 04:05:47;;;;;;;8.17;7.43;;;;;;;16.11;61.46;98693.06;6978866;28;20615;-83
2023/05/14 04:09:09;;;;;;;7.83;7.13;;;;;;;16.00;61.25;98630.56;6979088;28;20229;-83
2023/05/14 04:12:32;;;;;;;10.83;9.73;;;;;;;16.36;60.97;98671.78;6977992;28;20203;-83
2023/05/14 04:15:54;;;;;;;9.40;8.60;;;;;;;16.49;60.71;98666.03;6978676;28;20281;-83
2023/05/14 04:19:15;;;;;;;17.90;16.07;;;;;;;15.99;60.59;98599.00;6979082;28;20339;-82
2023/05/14 04:22:37;;;;;;;13.93;11.87;;;;;;;16.13;61.58;98682.78;6977753;28;20355;-83
2023/05/14 04:25:58;;;;;;;11.30;9.23;;;;;;;16.14;61.61;98659.94;6978054;28;20227;-83
2023/05/14 04:29:21;;;;;;;9.50;8.50;;;;;;;16.32;61.55;98676.03;6967037;28;20297;-83
2023/05/14 04:32:43;;;;;;;7.20;6.60;;;;;;;16.66;60.26;98663.31;6956839;28;20286;-83
2023/05/14 04:36:05;;;;;;;8.37;7.40;;;;;;;16.63;60.60;98677.44;6978717;28;20693;-83
2023/05/14 04:39:26;;;;;;;8.17;6.97;;;;;;;16.44;60.40;98646.91;6977564;28;20347;-83
2023/05/14 04:42:49;;;;;;;9.03;7.47;;;;;;;16.31;60.15;98657.25;6975877;28;20280;-85
2023/05/14 04:46:12;;;;;;;8.70;7.80;;;;;;;16.13;61.47;98681.94;6978052;28;20312;-83
2023/05/14 04:49:34;;;;;;;10.43;8.03;;;;;;;16.31;61.96;98668.13;6977829;28;20197;-83
2023/05/14 04:52:55;;;;;;;9.43;7.17;;;;;;;16.69;61.35;98666.38;6975686;28;20292;-83
2023/05/14 04:56:17;;;;;;;7.40;6.80;;;;;;;16.71;60.54;98666.97;6976877;28;20319;-83
2023/05/14 04:59:38;;;;;;;8.77;7.97;;;;;;;16.30;61.81;98659.16;6977182;28;20221;-83
2023/05/14 05:03:02;;;;;;;10.20;9.20;;;;;;;16.50;61.93;98684.03;6977189;28;20292;-83
2023/05/14 05:06:23;;;;;;;9.53;8.60;;;;;;;16.59;61.67;98684.44;6977303;28;20244;-83
2023/05/14 05:09:45;;;;;;;10.40;9.40;;;;;;;16.44;62.22;98690.44;6976554;28;20234;-83
2023/05/14 05:13:06;;;;;;;11.23;9.73;;;;;;;16.47;62.13;98692.69;6976316;28;20215;-83
2023/05/14 05:16:28;;;;;;;10.67;9.77;;;;;;;16.29;63.15;98683.88;6976682;28;20323;-83
2023/05/14 05:19:51;;;;;;;13.30;10.03;;;;;;;16.60;62.34;98677.91;6977446;28;20255;-83
2023/05/14 05:23:12;;;;;;;11.47;10.27;;;;;;;16.42;62.67;98645.50;6976659;28;20302;-84
2023/05/14 05:26:35;;;;;;;10.73;9.27;;;;;;;16.71;62.30;98663.41;6964363;28;20328;-84
2023/05/14 05:29:57;;;;;;;11.67;9.97;;;;;;;16.77;61.72;98667.88;6959714;28;20214;-83
2023/05/14 05:33:18;;;;;;;12.97;11.67;;;;;;;16.61;61.35;98663.25;6949064;28;20356;-84
2023/05/14 05:36:41;;;;;;;12.53;11.33;;;;;;;16.50;62.58;98662.25;6949418;28;20227;-83
2023/05/14 05:40:04;;;;;;;14.93;11.87;;;;;;;16.65;61.70;98654.34;6949489;28;20717;-84
2023/05/14 05:43:33;;;;;;;12.30;11.03;;;;;;;16.81;61.79;98682.66;6948323;28;20340;-83
2023/05/14 05:46:55;;;;;;;12.17;10.97;;;;;;;16.94;61.32;98676.84;6962460;28;20225;-84
2023/05/14 05:50:17;;;;;;;11.83;9.90;;;;;;;16.84;61.25;98674.81;6976898;28;20215;-84
2023/05/14 05:53:40;;;;;;;12.50;11.20;;;;;;;16.52;62.60;98678.34;6959830;28;20300;-83
2023/05/14 05:57:01;;;;;;;11.03;10.00;;;;;;;16.87;61.59;98652.50;6949366;28;20303;-83
2023/05/14 06:00:23;;;;;;;11.93;10.73;;;;;;;16.87;62.05;98671.56;6949581;28;20693;-83
2023/05/14 06:03:45;;;;;;;14.70;10.30;;;;;;;16.55;61.49;98599.72;6948527;28;20236;-83
2023/05/14 06:07:06;;;;;;;11.10;10.00;;;;;;;16.98;61.62;98680.75;6949906;28;20242;-84
2023/05/14 06:10:29;;;;;;;10.37;9.47;;;;;;;16.23;61.69;98573.31;6949210;28;20248;-84
2023/05/14 06:13:51;;;;;;;10.83;9.70;;;;;;;17.01;61.53;98677.50;6949104;28;20595;-85
2023/05/14 06:17:12;;;;;;;10.53;9.53;;;;;;;17.14;60.06;98660.81;6949750;28;20371;-85
2023/05/14 06:20:34;;;;;;;12.00;9.77;;;;;;;17.22;60.11;98668.56;6949671;28;20265;-86
2023/05/14 06:23:55;;;;;;;12.90;10.63;;;;;;;17.19;60.37;98663.63;6948082;28;20246;-85
2023/05/14 06:27:18;;;;;;;11.27;10.17;;;;;;;17.29;60.24;98682.84;6948622;28;20263;-85
2023/05/14 06:30:40;;;;;;;11.30;10.30;;;;;;;17.21;60.51;98675.91;6949363;28;20250;-84
2023/05/14 06:34:02;;;;;;;11.97;10.33;;;;;;;17.32;60.23;98672.25;6948143;28;20207;-84
2023/05/14 06:37:23;;;;;;;10.83;9.83;;;;;;;16.69;60.25;98589.34;6948573;28;20230;-83
2023/05/14 06:40:45;;;;;;;12.13;10.37;;;;;;;17.60;59.17;98677.59;6949382;28;20596;-84
2023/05/14 06:44:09;;;;;;;18.57;12.60;;;;;;;17.47;59.01;98685.31;6947882;28;20742;-83
2023/05/14 06:47:31;;;;;;;11.20;9.93;;;;;;;17.87;58.06;98650.38;6947936;28;20297;-84
2023/05/14 06:50:52;;;;;;;10.13;8.97;;;;;;;18.14;57.37;98682.06;6948781;28;20253;-83
2023/05/14 06:54:14;;;;;;;10.43;8.60;;;;;;;18.11;57.21;98674.38;6947771;28;20731;-85
2023/05/14 06:57:35;;;;;;;9.43;8.27;;;;;;;18.49;55.95;98665.25;6948164;28;20230;-84
2023/05/14 07:00:59;;;;;;;9.37;8.47;;;;;;;18.45;54.29;98677.78;6948525;28;20346;-84
2023/05/14 07:04:21;;;;;;;9.07;8.13;;;;;;;18.40;55.74;98691.38;6947738;28;20326;-84
2023/05/14 07:07:42;;;;;;;9.03;8.23;;;;;;;18.82;54.53;98678.66;6947659;28;20828;-85
2023/05/14 07:11:04;;;;;;;8.67;7.87;;;;;;;18.79;53.22;98613.59;6948018;28;20337;-85
2023/05/14 07:14:25;;;;;;;10.40;8.03;;;;;;;18.86;53.54;98645.09;6948495;28;20289;-85
2023/05/14 07:17:48;;;;;;;10.60;9.00;;;;;;;18.14;53.77;98613.84;6952798;28;20313;-85
2023/05/14 07:21:10;;;;;;;8.90;7.87;;;;;;;18.86;53.35;98669.69;6952134;28;20585;-86
2023/05/14 07:24:31;;;;;;;8.77;7.87;;;;;;;19.03;53.57;98669.53;6951755;28;20368;-85
2023/05/14 07:27:53;;;;;;;9.03;7.97;;;;;;;19.24;52.27;98668.63;6952412;28;20369;-85
2023/05/14 07:31:14;;;;;;;10.13;8.70;;;;;;;19.37;52.18;98649.84;6952477;28;20306;-85
2023/05/14 07:34:37;;;;;;;8.83;7.97;;;;;;;19.52;51.04;98649.91;6952207;28;20693;-85
2023/05/14 07:37:59;;;;;;;10.00;9.10;;;;;;;18.33;53.75;98647.91;6969953;28;20222;-86
2023/05/14 07:41:20;;;;;;;9.10;8.30;;;;;;;18.83;52.83;98574.59;6954422;28;20234;-85
2023/05/14 07:44:42;;;;;;;9.70;8.80;;;;;;;18.58;52.36;98581.78;6951252;28;20324;-86
2023/05/14 07:48:04;;;;;;;10.07;9.07;;;;;;;19.21;52.24;98656.28;6951996;28;20632;-86
2023/05/14 07:51:27;;;;;;;10.00;9.00;;;;;;;18.91;51.69;98586.91;6952138;28;20292;-86
2023/05/14 07:54:48;;;;;;;10.37;8.90;;;;;;;19.09;52.65;98650.19;6951543;28;20253;-85
2023/05/14 07:58:10;;;;;;;9.60;8.67;;;;;;;18.84;53.72;98627.31;6952319;28;20250;-85
2023/05/14 08:01:31;;;;;;;10.43;9.33;;;;;;;19.07;51.95;98575.84;6952269;28;20297;-85
2023/05/14 08:04:54;;;;;;;10.27;9.27;;;;;;;20.10;50.56;98641.41;6951449;28;20222;-85
2023/05/14 08:08:17;;;;;;;10.23;9.17;;;;;;;20.65;49.03;98626.97;6951960;28;20235;-85
2023/05/14 08:11:39;;;;;;;9.70;8.80;;;;;;;20.70;48.02;98621.50;6951165;28;20256;-85
2023/05/14 08:15:00;;;;;;;9.30;8.40;;;;;;;20.62;48.13;98624.78;6951080;28;20288;-85
2023/05/14 08:18:22;;;;;;;11.40;9.23;;;;;;;20.71;49.17;98642.31;6951544;28;20296;-85
2023/05/14 08:21:45;;;;;;;9.67;8.73;;;;;;;20.08;49.54;98629.09;6949756;28;20294;-85
2023/05/14 08:25:09;;;;;;;9.47;8.47;;;;;;;20.96;48.57;98628.63;6951448;28;20742;-85
2023/05/14 08:28:30;;;;;;;11.30;8.47;;;;;;;21.72;46.97;98630.94;6951828;28;20207;-84
2023/05/14 08:31:52;;;;;;;8.90;8.10;;;;;;;21.48;47.40;98632.66;6950744;28;20304;-85
2023/05/14 08:35:13;;;;;;;11.47;8.87;;;;;;;22.33;45.45;98635.84;6951045;28;20622;-86
2023/05/14 08:38:35;;;;;;;9.90;8.87;;;;;;;20.57;46.82;98517.97;6950293;28;20242;-87
2023/05/14 08:42:00;;;;;;;9.03;8.13;;;;;;;21.82;46.36;98628.97;6950386;28;20241;-85
2023/05/14 08:45:25;;;;;;;9.70;8.80;;;;;;;21.55;47.20;98636.72;6951264;28;20271;-85
2023/05/14 08:48:48;;;;;;;9.77;8.77;;;;;;;21.86;46.80;98638.31;6951456;28;20199;-85
2023/05/14 08:52:10;;;;;;;8.43;7.63;;;;;;;21.99;45.87;98628.59;6950936;28;20337;-86
2023/05/14 08:55:32;;;;;;;9.80;8.90;;;;;;;21.39;47.96;98629.66;6950736;28;20227;-85
2023/05/14 08:58:55;;;;;;;9.43;8.60;;;;;;;22.24;45.96;98617.50;6953130;28;20207;-84
2023/05/14 09:02:17;;;;;;;9.83;8.60;;;;;;;21.31;47.39;98621.97;6962320;28;20370;-85
2023/05/14 09:05:39;;;;;;;9.30;8.40;;;;;;;21.33;47.36;98619.81;6950153;28;20223;-83
2023/05/14 09:09:01;;;;;;;9.70;8.80;;;;;;;21.20;47.90;98609.38;6962439;28;20215;-84
2023/05/14 09:12:23;;;;;;;9.40;8.50;;;;;;;20.89;48.26;98554.94;6977097;28;20260;-85
2023/05/14 09:15:46;;;;;;;9.77;8.87;;;;;;;21.67;47.08;98604.31;6976938;28;20222;-84
2023/05/14 09:19:07;;;;;;;8.87;7.97;;;;;;;22.21;45.61;98599.66;6978924;28;20230;-83
2023/05/14 09:22:32;;;;;;;8.30;7.57;;;;;;;22.30;44.99;98602.63;6974904;28;20295;-83
2023/05/14 09:25:53;;;;;;;9.67;8.67;;;;;;;21.87;46.74;98606.16;6977168;28;20239;-84
2023/05/14 09:29:15;;;;;;;10.50;8.40;;;;;;;21.95;46.29;98606.38;6959369;28;20345;-84
2023/05/14 09:32:39;;;;;;;8.67;7.87;;;;;;;21.51;47.46;98582.69;6948737;28;20275;-87
2023/05/14 09:36:01;;;;;;;9.70;8.80;;;;;;;21.14;47.93;98588.56;6948901;28;20255;-86
2023/05/14 09:39:23;;;;;;;10.70;8.83;;;;;;;20.86;47.43;98598.50;6949060;28;20297;-84
2023/05/14 09:42:44;;;;;;;10.40;8.33;;;;;;;20.90;47.99;98575.75;6975869;28;20202;-84
2023/05/14 09:46:06;;;;;;;9.60;8.53;;;;;;;20.75;48.01;98564.75;6976305;28;20643;-85
2023/05/14 09:49:29;;;;;;;9.87;8.53;;;;;;;21.04;48.47;98576.81;6972252;28;20344;-85
2023/05/14 09:52:50;;;;;;;9.30;8.40;;;;;;;21.02;48.03;98579.81;6975278;28;20251;-83
2023/05/14 09:56:12;;;;;;;8.67;7.87;;;;;;;21.30;47.68;98590.19;6976349;28;20318;-84
2023/05/14 09:59:33;;;;;;;9.00;7.77;;;;;;;21.70;45.97;98562.63;6976052;28;20282;-84
2023/05/14 10:02:56;;;;;;;8.90;8.00;;;;;;;21.26;46.76;98588.28;6975865;28;20426;-84
2023/05/14 10:06:22;;;;;;;8.70;7.90;;;;;;;20.94;47.18;98593.28;6976091;28;20700;-84
2023/05/14 10:09:44;;;;;;;9.10;8.30;;;;;;;20.60;47.89;98589.47;6976024;28;20688;-84
2023/05/14 10:13:09;;;;;;;10.67;8.20;;;;;;;21.51;46.48;98574.47;6974679;28;20256;-84
2023/05/14 10:16:33;;;;;;;8.60;7.80;;;;;;;21.75;45.02;98570.84;6975881;28;20878;-84
2023/05/14 10:19:57;;;;;;;8.83;8.03;;;;;;;21.73;46.10;98536.53;6975774;28;20211;-84
2023/05/14 10:23:22;;;;;;;8.10;7.40;;;;;;;22.01;45.25;98572.31;6973909;28;20260;-84
2023/05/14 10:26:45;;;;;;;7.90;7.20;;;;;;;21.75;44.78;98561.75;6975459;28;20323;-84
2023/05/14 10:30:11;;;;;;;8.63;7.77;;;;;;;21.57;45.41;98557.72;6974820;28;20214;-84
2023/05/14 10:33:46;;;;;;;8.30;7.50;;;;;;;21.17;45.84;98568.84;6976107;28;20204;-84
2023/05/14 10:37:09;;;;;;;8.27;7.47;;;;;;;22.02;45.76;98562.16;6975633;28;20333;-85
2023/05/14 10:40:32;;;;;;;7.40;6.70;;;;;;;22.70;42.76;98528.13;6966694;28;20247;-84
2023/05/14 10:43:53;;;;;;;7.60;6.90;;;;;;;22.92;42.32;98559.53;6947007;28;20269;-84
2023/05/14 10:47:16;;;;;;;7.23;5.83;;;;;;;23.50;40.67;98560.28;6947858;28;20239;-84
2023/05/14 10:50:38;;;;;;;6.90;6.20;;;;;;;23.10;41.19;98558.78;6958601;28;20198;-82
2023/05/14 10:54:00;;;;;;;6.83;6.17;;;;;;;22.70;41.64;98548.19;6980005;28;20728;-84
2023/05/14 10:57:24;;;;;;;7.20;6.10;;;;;;;22.52;42.09;98546.16;6980406;28;20723;-86
2023/05/14 11:00:48;;;;;;;7.70;6.00;;;;;;;21.91;43.79;98535.88;6980796;28;20206;-83
2023/05/14 11:04:18;;;;;;;5.33;4.30;;;;;;;21.66;42.81;98531.31;6980228;28;20212;-86
2023/05/14 11:07:40;;;;;;;5.90;5.40;;;;;;;22.19;41.20;98496.69;6981150;28;20366;-85
2023/05/14 11:11:02;;;;;;;5.87;5.27;;;;;;;22.83;42.32;98550.25;6981836;28;20260;-85
2023/05/14 11:14:25;;;;;;;5.43;5.03;;;;;;;23.67;38.40;98533.09;6980980;28;20304;-84
2023/05/14 11:17:48;;;;;;;5.67;5.00;;;;;;;22.84;40.07;98513.41;6980701;28;20254;-85
2023/05/14 11:21:10;;;;;;;5.70;5.13;;;;;;;23.00;40.14;98517.63;6977146;28;20198;-85
2023/05/14 11:24:31;;;;;;;6.00;5.40;;;;;;;22.14;41.91;98514.00;6968539;28;20295;-85
2023/05/14 11:27:57;;;;;;;5.07;4.67;;;;;;;22.49;41.50;98527.47;6960690;28;20314;-85
2023/05/14 11:31:22;;;;;;;5.00;4.60;;;;;;;22.56;41.84;98519.75;6968587;28;20214;-85
2023/05/14 11:34:45;;;;;;;5.07;4.67;;;;;;;22.42;42.14;98505.00;6951767;28;20560;-85
2023/05/14 11:38:06;;;;;;;5.10;4.60;;;;;;;23.32;41.08;98509.59;6955501;28;20306;-81
2023/05/14 11:41:29;;;;;;;4.63;4.13;;;;;;;23.34;40.45;98509.28;6978705;28;20243;-80
2023/05/14 11:44:52;;;;;;;4.30;3.90;;;;;;;24.51;37.45;98492.41;6971827;28;20229;-81
2023/05/14 11:48:15;;;;;;;4.30;3.37;;;;;;;22.62;39.10;98502.09;6976223;28;20220;-83
2023/05/14 11:51:37;;;;;;;4.63;4.23;;;;;;;23.30;38.27;98500.81;6978963;28;20270;-81
2023/05/14 11:54:58;;;;;;;4.20;3.90;;;;;;;23.80;36.34;98502.88;6970883;28;20221;-82
2023/05/14 11:58:20;;;;;;;7.53;3.97;;;;;;;22.58;38.80;98506.53;6966141;28;20320;-82
2023/05/14 12:01:41;;;;;;;4.43;4.00;;;;;;;22.36;39.93;98499.84;6948542;28;20241;-81
2023/05/14 12:05:06;;;;;;;4.60;4.20;;;;;;;23.17;39.05;98489.69;6950153;28;20231;-82
2023/05/14 12:08:29;;;;;;;4.80;4.40;;;;;;;23.36;38.15;98487.81;6950254;28;20229;-82
2023/05/14 12:11:51;;;;;;;4.80;3.90;;;;;;;23.50;39.85;98477.72;6969155;28;20208;-81
2023/05/14 12:15:14;;;;;;;4.50;4.10;;;;;;;24.03;38.42;98455.19;6962924;28;20294;-81
2023/05/14 12:18:35;;;;;;;4.40;4.10;;;;;;;21.87;41.00;98463.41;6949752;28;20302;-81
2023/05/14 12:22:01;;;;;;;4.33;3.97;;;;;;;22.65;39.67;98479.50;6949543;28;20727;-81
2023/05/14 12:25:25;;;;;;;5.00;4.60;;;;;;;22.54;40.24;98480.72;6949829;28;20231;-82
2023/05/14 12:28:47;;;;;;;6.17;4.03;;;;;;;22.86;40.03;98477.38;6949582;28;20213;-81
2023/05/14 12:32:09;;;;;;;4.73;4.33;;;;;;;23.14;40.17;98438.78;6949182;28;20337;-82
2023/05/14 12:35:31;;;;;;;4.07;3.67;;;;;;;23.25;39.17;98462.34;6950083;28;20273;-82
2023/05/14 12:38:59;;;;;;;4.50;4.10;;;;;;;22.78;39.13;98464.28;6955659;28;20290;-82
2023/05/14 12:42:20;;;;;;;4.50;4.10;;;;;;;22.82;39.65;98457.91;6976450;28;20185;-82
2023/05/14 12:45:42;;;;;;;4.27;3.90;;;;;;;23.23;38.93;98456.31;6977194;28;20230;-82
2023/05/14 12:49:05;;;;;;;4.50;4.10;;;;;;;23.33;38.18;98433.38;6977853;28;20211;-82
2023/05/14 12:52:27;;;;;;;4.20;3.90;;;;;;;22.55;38.91;98440.34;6974501;28;20201;-82
2023/05/14 12:55:50;;;;;;;4.90;4.00;;;;;;;22.74;38.58;98422.81;6976436;28;20364;-83
2023/05/14 12:59:11;;;;;;;3.90;3.60;;;;;;;22.80;39.52;98421.66;6953221;28;20252;-83
2023/05/14 13:02:33;;;;;;;3.93;3.60;;;;;;;24.20;37.79;98418.81;6949127;28;20337;-84
2023/05/14 13:05:55;;;;;;;4.47;3.40;;;;;;;23.98;36.38;98421.41;6949994;28;20373;-83
2023/05/14 13:09:16;;;;;;;4.00;3.70;;;;;;;23.84;36.64;98420.50;6949853;28;20221;-83
2023/05/14 13:12:39;;;;;;;3.77;3.13;;;;;;;23.50;36.53;98375.88;6974407;28;20697;-83
2023/05/14 13:16:00;;;;;;;3.40;3.17;;;;;;;23.58;35.77;98409.06;6969552;28;20220;-85
2023/05/14 13:19:22;;;;;;;3.40;3.10;;;;;;;23.99;34.73;98399.06;6975407;28;20211;-84
2023/05/14 13:22:44;;;;;;;3.80;3.50;;;;;;;24.56;35.46;98383.97;6976145;28;20239;-84
2023/05/14 13:26:05;;;;;;;3.87;3.10;;;;;;;24.78;34.44;98398.72;6955247;28;20716;-84
2023/05/14 13:29:30;;;;;;;3.57;3.27;;;;;;;24.64;33.31;98356.53;6948675;28;20211;-84
2023/05/14 13:32:51;;;;;;;3.70;3.10;;;;;;;25.30;32.32;98387.16;6971655;28;20199;-84
2023/05/14 13:36:14;;;;;;;4.33;3.27;;;;;;;23.94;35.59;98393.63;6977730;28;20311;-84
2023/05/14 13:39:36;;;;;;;3.47;3.17;;;;;;;25.15;34.44;98364.56;6977994;28;20209;-84
2023/05/14 13:42:57;;;;;;;3.87;3.47;;;;;;;24.97;32.55;98318.63;6977256;28;20252;-84
2023/05/14 13:46:20;;;;;;;3.87;2.90;;;;;;;25.10;32.96;98376.53;6972457;28;20315;-84
2023/05/14 13:49:42;;;;;;;3.43;2.80;;;;;;;24.38;32.62;98314.06;6972465;28;20324;-84
2023/05/14 13:53:04;;;;;;;2.70;2.50;;;;;;;24.73;31.25;98342.84;6953603;28;20347;-84
2023/05/14 13:56:25;;;;;;;3.00;2.77;;;;;;;24.55;33.71;98366.59;6949161;28;20458;-84
2023/05/14 13:59:47;;;;;;;3.67;3.37;;;;;;;24.79;33.55;98361.72;6948973;28;20753;-84
2023/05/14 14:03:10;;;;;;;3.30;2.93;;;;;;;24.69;33.70;98358.38;6948417;28;20210;-84
2023/05/14 14:06:32;;;;;;;3.27;3.07;;;;;;;24.76;34.45;98356.84;6968851;28;20310;-84
2023/05/14 14:09:53;;;;;;;3.40;3.10;;;;;;;23.89;35.09;98352.41;6976321;28;20704;-84
2023/05/14 14:13:15;;;;;;;3.60;3.30;;;;;;;24.22;36.52;98350.44;6975074;28;20295;-84
2023/05/14 14:16:36;;;;;;;3.73;3.30;;;;;;;25.33;34.79;98345.13;6976504;28;20250;-84
2023/05/14 14:19:59;;;;;;;4.10;3.73;;;;;;;24.10;36.49;98339.94;6975640;28;20271;-84
2023/05/14 14:23:20;;;;;;;3.77;3.17;;;;;;;23.32;36.74;98347.28;6977501;28;20289;-84
2023/05/14 14:26:42;;;;;;;5.40;3.40;;;;;;;23.15;37.02;98351.59;6981757;28;20318;-84
2023/05/14 14:30:05;;;;;;;3.67;3.23;;;;;;;24.45;35.29;98335.69;6980795;28;20266;-84
2023/05/14 14:33:26;;;;;;;3.70;3.33;;;;;;;23.63;35.47;98344.84;6981354;28;20299;-84
2023/05/14 14:36:49;;;;;;;4.43;3.40;;;;;;;24.02;35.83;98342.56;6981325;28;20893;-84
2023/05/14 14:40:11;;;;;;;4.00;3.70;;;;;;;24.17;36.24;98347.78;6980772;28;20199;-84
2023/05/14 14:43:33;;;;;;;3.10;2.90;;;;;;;23.42;34.88;98347.09;6980916;28;20265;-84
2023/05/14 14:46:55;;;;;;;3.50;2.80;;;;;;;23.48;35.20;98340.41;6981741;28;20320;-84
2023/05/14 14:50:16;;;;;;;2.90;2.60;;;;;;;22.99;36.04;98278.69;6981968;28;20861;-84
2023/05/14 14:53:40;;;;;;;3.50;3.30;;;;;;;23.20;36.92;98329.56;6981387;28;20307;-84
2023/05/14 14:57:01;;;;;;;3.63;3.37;;;;;;;23.25;36.77;98355.06;6981971;28;20293;-84
2023/05/14 15:00:23;;;;;;;3.40;3.20;;;;;;;24.18;36.16;98341.19;6981545;28;20224;-84
2023/05/14 15:03:46;;;;;;;4.93;3.37;;;;;;;23.70;36.57;98317.75;6956277;28;20352;-84
2023/05/14 15:07:08;;;;;;;3.37;3.07;;;;;;;23.61;35.89;98336.06;6960909;28;20235;-84
2023/05/14 15:10:31;;;;;;;3.00;2.80;;;;;;;23.77;34.37;98324.50;6968711;28;20294;-84
2023/05/14 15:13:52;;;;;;;3.47;3.17;;;;;;;24.43;33.74;98338.72;6982915;28;20312;-84
2023/05/14 15:17:14;;;;;;;4.63;3.07;;;;;;;24.52;34.07;98338.84;6971524;28;20327;-82
2023/05/14 15:20:36;;;;;;;3.33;3.07;;;;;;;24.48;34.73;98322.09;6955078;28;20207;-83
2023/05/14 15:23:57;;;;;;;3.80;3.50;;;;;;;24.95;34.42;98352.03;6964528;28;20204;-84
2023/05/14 15:27:20;;;;;;;3.70;3.40;;;;;;;24.24;35.74;98351.78;6954506;28;20235;-84
2023/05/14 15:30:42;;;;;;;4.03;3.73;;;;;;;23.63;36.63;98345.69;6970905;28;20206;-84
2023/05/14 15:34:03;;;;;;;4.00;3.70;;;;;;;23.48;36.58;98332.13;6971443;28;20663;-84
2023/05/14 15:37:26;;;;;;;3.77;3.47;;;;;;;23.04;37.64;98345.44;6963809;28;20847;-84
2023/05/14 15:40:49;;;;;;;4.30;3.80;;;;;;;23.61;37.01;98336.88;6958826;28;20419;-86
2023/05/14 15:44:12;;;;;;;3.90;3.50;;;;;;;22.49;38.31;98342.59;6980025;28;20215;-84
2023/05/14 15:47:34;;;;;;;3.87;3.57;;;;;;;22.49;38.84;98326.91;6981167;28;20345;-84
2023/05/14 15:50:55;;;;;;;3.70;3.40;;;;;;;23.23;38.21;98302.28;6981633;28;20249;-84